createdAt,value
2022-08-23T00:02:31.963Z,6.90
2022-08-23T00:05:08.888Z,6.60
2022-08-23T00:07:45.233Z,7.60
2022-08-23T00:10:19.371Z,7.90
2022-08-23T00:12:51.640Z,6.20
2022-08-23T00:15:23.993Z,8.00
2022-08-23T00:17:56.533Z,10.10
2022-08-23T00:20:28.858Z,8.40
2022-08-23T00:23:01.143Z,7.10
2022-08-23T00:25:33.348Z,9.20
2022-08-23T00:28:11.444Z,8.70
2022-08-23T00:30:47.296Z,8.50
2022-08-23T00:33:19.498Z,8.30
2022-08-23T00:35:51.698Z,10.70
2022-08-23T00:38:34.036Z,8.10
2022-08-23T00:41:07.540Z,6.20
2022-08-23T00:44:00.932Z,7.30
2022-08-23T00:47:01.819Z,7.80
2022-08-23T00:49:37.234Z,5.90
2022-08-23T00:54:44.427Z,6.10
2022-08-23T00:57:19.880Z,6.30
2022-08-23T00:59:52.094Z,7.80
2022-08-23T01:02:24.939Z,6.60
2022-08-23T01:04:59.638Z,7.90
2022-08-23T01:07:42.263Z,6.80
2022-08-23T01:10:22.382Z,7.70
2022-08-23T01:13:03.419Z,8.90
2022-08-23T01:15:40.084Z,7.40
2022-08-23T01:18:16.427Z,8.30
2022-08-23T01:21:03.002Z,6.60
2022-08-23T01:23:42.032Z,7.20
2022-08-23T01:26:22.054Z,6.20
2022-08-23T01:28:55.725Z,4.70
2022-08-23T01:31:28.207Z,10.50
2022-08-23T01:34:06.787Z,10.30
2022-08-23T01:36:39.700Z,10.50
2022-08-23T01:39:12.551Z,7.50
2022-08-23T01:41:45.071Z,7.20
2022-08-23T01:44:17.664Z,5.70
2022-08-23T01:46:50.690Z,6.90
2022-08-23T01:49:30.175Z,7.40
2022-08-23T01:52:02.512Z,9.00
2022-08-23T01:54:34.695Z,6.10
2022-08-23T01:57:08.897Z,7.20
2022-08-23T01:59:41.433Z,8.60
2022-08-23T02:02:15.215Z,6.70
2022-08-23T02:04:47.419Z,7.80
2022-08-23T02:07:20.900Z,6.40
2022-08-23T02:09:53.067Z,6.10
2022-08-23T02:12:25.512Z,6.30
2022-08-23T02:14:57.677Z,6.40
2022-08-23T02:17:29.904Z,5.70
2022-08-23T02:20:04.491Z,7.30
2022-08-23T02:22:37.770Z,5.90
2022-08-23T02:25:11.496Z,6.10
2022-08-23T02:27:44.290Z,6.30
2022-08-23T02:30:17.041Z,7.30
2022-08-23T02:32:49.200Z,6.90
2022-08-23T02:35:24.530Z,6.10
2022-08-23T02:37:56.685Z,8.50
2022-08-23T02:40:28.894Z,7.90
2022-08-23T02:43:01.225Z,6.60
2022-08-23T02:45:33.607Z,6.30
2022-08-23T02:48:06.491Z,7.30
2022-08-23T02:50:39.143Z,6.60
2022-08-23T02:53:11.373Z,6.10
2022-08-23T02:55:45.627Z,5.10
2022-08-23T02:58:17.911Z,5.90
2022-08-23T03:00:51.920Z,7.20
2022-08-23T03:03:24.355Z,7.40
2022-08-23T03:05:57.176Z,6.40
2022-08-23T03:08:49.647Z,7.50
2022-08-23T03:11:23.466Z,8.40
2022-08-23T03:13:57.646Z,7.60
2022-08-23T03:16:30.318Z,5.10
2022-08-23T03:19:03.031Z,7.50
2022-08-23T03:21:35.499Z,5.50
2022-08-23T03:24:10.356Z,4.80
2022-08-23T03:26:45.911Z,6.50
2022-08-23T03:29:18.993Z,5.40
2022-08-23T03:31:51.788Z,6.20
2022-08-23T03:34:26.679Z,7.10
2022-08-23T03:36:59.103Z,5.90
2022-08-23T03:39:31.667Z,6.40
2022-08-23T03:42:03.928Z,5.80
2022-08-23T03:44:36.176Z,5.40
2022-08-23T03:47:08.942Z,7.00
2022-08-23T03:49:41.562Z,7.40
2022-08-23T03:52:14.097Z,5.70
2022-08-23T03:54:46.239Z,5.60
2022-08-23T03:57:18.376Z,6.10
2022-08-23T03:59:50.668Z,7.00
2022-08-23T04:02:22.887Z,6.00
2022-08-23T04:04:55.076Z,7.30
2022-08-23T04:07:27.716Z,6.30
2022-08-23T04:09:59.900Z,6.60
2022-08-23T04:12:32.089Z,5.60
2022-08-23T04:15:05.363Z,5.10
2022-08-23T04:17:37.659Z,6.60
2022-08-23T04:20:11.572Z,5.70
2022-08-23T04:22:45.930Z,6.20
2022-08-23T04:25:34.996Z,8.10
2022-08-23T04:28:08.011Z,6.30
2022-08-23T04:30:40.146Z,6.20
2022-08-23T04:33:17.882Z,6.20
2022-08-23T04:35:50.519Z,5.80
2022-08-23T04:38:24.457Z,6.80
2022-08-23T04:41:16.123Z,6.30
2022-08-23T04:43:48.839Z,5.50
2022-08-23T04:46:21.102Z,5.80
2022-08-23T04:48:54.254Z,6.30
2022-08-23T04:51:26.432Z,5.00
2022-08-23T04:53:58.664Z,5.20
2022-08-23T04:56:31.258Z,5.60
2022-08-23T04:59:03.552Z,6.30
2022-08-23T05:01:36.283Z,5.80
2022-08-23T05:04:09.208Z,5.00
2022-08-23T05:06:41.392Z,6.00
2022-08-23T05:09:17.235Z,4.40
2022-08-23T05:11:52.674Z,5.30
2022-08-23T05:14:24.813Z,5.60
2022-08-23T05:16:57.524Z,6.80
2022-08-23T05:19:29.768Z,5.90
2022-08-23T05:22:01.971Z,5.70
2022-08-23T05:24:34.264Z,8.00
2022-08-23T05:27:08.684Z,6.70
2022-08-23T05:29:44.011Z,4.80
2022-08-23T05:32:16.159Z,5.10
2022-08-23T05:34:48.577Z,5.20
2022-08-23T05:37:20.844Z,6.00
2022-08-23T05:39:53.208Z,6.80
2022-08-23T05:42:25.839Z,5.30
2022-08-23T05:44:58.087Z,7.80
2022-08-23T05:47:33.787Z,6.10
2022-08-23T05:50:07.409Z,8.00
2022-08-23T05:52:39.800Z,7.10
2022-08-23T05:55:12.371Z,5.70
2022-08-23T05:57:44.630Z,7.00
2022-08-23T06:00:17.202Z,7.10
2022-08-23T06:02:50.498Z,6.40
2022-08-23T06:05:22.707Z,5.80
2022-08-23T06:07:56.719Z,5.30
2022-08-23T06:10:28.912Z,7.70
2022-08-23T06:13:02.990Z,5.70
2022-08-23T06:15:35.187Z,6.70
2022-08-23T06:18:07.399Z,6.20
2022-08-23T06:20:39.684Z,6.70
2022-08-23T06:23:12.235Z,6.50
2022-08-23T06:25:44.476Z,8.60
2022-08-23T06:28:16.680Z,5.40
2022-08-23T06:30:48.915Z,6.70
2022-08-23T06:33:21.744Z,6.60
2022-08-23T06:36:06.340Z,6.90
2022-08-23T06:38:38.904Z,7.00
2022-08-23T06:41:13.947Z,5.80
2022-08-23T06:43:48.819Z,6.30
2022-08-23T06:48:56.315Z,7.10
2022-08-23T06:51:31.768Z,7.90
2022-08-23T06:54:07.159Z,6.40
2022-08-23T06:56:40.671Z,7.40
2022-08-23T06:59:13.556Z,6.40
2022-08-23T07:01:48.296Z,7.90
2022-08-23T07:04:23.324Z,8.00
2022-08-23T07:06:55.756Z,7.00
2022-08-23T07:09:28.334Z,5.90
2022-08-23T07:12:01.659Z,6.50
2022-08-23T07:14:33.956Z,8.20
2022-08-23T07:17:06.680Z,7.40
2022-08-23T07:19:39.311Z,7.80
2022-08-23T07:22:12.124Z,6.50
2022-08-23T07:24:44.650Z,7.50
2022-08-23T07:27:16.881Z,7.00
2022-08-23T07:29:49.275Z,8.70
2022-08-23T07:32:21.453Z,7.80
2022-08-23T07:34:53.697Z,7.10
2022-08-23T07:37:26.461Z,8.10
2022-08-23T07:39:59.129Z,8.50
2022-08-23T07:42:31.404Z,6.90
2022-08-23T07:45:04.168Z,9.10
2022-08-23T07:47:36.792Z,8.30
2022-08-23T07:50:10.667Z,9.30
2022-08-23T07:52:42.963Z,9.80
2022-08-23T07:55:15.277Z,6.80
2022-08-23T07:57:47.428Z,8.00
2022-08-23T08:00:20.138Z,6.50
2022-08-23T08:02:52.643Z,8.50
2022-08-23T08:05:27.360Z,7.60
2022-08-23T08:07:59.719Z,7.00
2022-08-23T08:10:32.311Z,7.90
2022-08-23T08:13:04.506Z,6.20
2022-08-23T08:15:37.107Z,9.10
2022-08-23T08:18:09.327Z,7.70
2022-08-23T08:20:46.090Z,9.30
2022-08-23T08:23:18.312Z,7.70
2022-08-23T08:25:50.517Z,7.50
2022-08-23T08:28:23.901Z,7.10
2022-08-23T08:30:56.192Z,7.50
2022-08-23T08:33:30.864Z,8.60
2022-08-23T08:36:03.741Z,7.10
2022-08-23T08:38:48.267Z,9.30
2022-08-23T08:41:37.740Z,7.50
2022-08-23T08:44:21.304Z,8.20
2022-08-23T08:46:57.918Z,7.50
2022-08-23T08:49:38.069Z,7.20
2022-08-23T08:52:16.304Z,7.50
2022-08-23T08:54:53.268Z,7.30
2022-08-23T08:57:27.883Z,7.30
2022-08-23T09:00:04.273Z,6.80
2022-08-23T09:02:38.939Z,7.40
2022-08-23T09:05:15.892Z,7.70
2022-08-23T09:07:59.472Z,8.00
2022-08-23T09:10:54.259Z,8.20
2022-08-23T09:13:53.713Z,7.00
2022-08-23T09:16:41.223Z,8.80
2022-08-23T09:19:13.728Z,6.80
2022-08-23T09:21:49.629Z,7.60
2022-08-23T09:24:22.251Z,9.40
2022-08-23T09:26:55.031Z,7.20
2022-08-23T09:29:30.034Z,8.80
2022-08-23T09:32:03.612Z,6.60
2022-08-23T09:34:43.840Z,6.90
2022-08-23T09:37:20.743Z,6.60
2022-08-23T09:39:55.824Z,7.20
2022-08-23T09:42:36.004Z,6.30
2022-08-23T09:45:26.556Z,8.00
2022-08-23T09:47:58.985Z,5.40
2022-08-23T09:50:35.514Z,7.90
2022-08-23T09:53:11.132Z,6.30
2022-08-23T09:55:48.235Z,7.90
2022-08-23T09:58:27.551Z,8.70
2022-08-23T10:01:19.605Z,9.00
2022-08-23T10:04:10.691Z,8.10
2022-08-23T10:06:46.167Z,7.00
2022-08-23T10:09:28.708Z,6.90
2022-08-23T10:12:02.981Z,6.70
2022-08-23T10:14:35.347Z,7.70
2022-08-23T10:17:19.745Z,9.40
2022-08-23T10:20:00.118Z,7.90
2022-08-23T10:22:42.086Z,8.00
2022-08-23T10:25:20.016Z,7.30
2022-08-23T10:28:21.867Z,7.00
2022-08-23T10:31:01.504Z,7.10
2022-08-23T10:33:43.471Z,7.70
2022-08-23T10:36:22.404Z,7.40
2022-08-23T10:39:00.808Z,6.60
2022-08-23T10:41:51.723Z,7.50
2022-08-23T10:44:33.304Z,7.90
2022-08-23T10:47:16.745Z,8.00
2022-08-23T10:49:53.551Z,7.50
2022-08-23T10:52:31.125Z,8.40
2022-08-23T10:55:17.535Z,7.00
2022-08-23T10:57:53.378Z,7.70
2022-08-23T11:00:29.319Z,7.10
2022-08-23T11:03:19.190Z,7.40
2022-08-23T11:06:42.169Z,7.80
2022-08-23T11:09:32.805Z,6.50
2022-08-23T11:12:20.215Z,6.10
2022-08-23T11:15:05.153Z,7.40
2022-08-23T11:17:53.917Z,8.30
2022-08-23T11:21:01.226Z,7.30
2022-08-23T11:23:43.564Z,6.80
2022-08-23T11:26:53.344Z,6.40
2022-08-23T11:29:34.761Z,7.40
2022-08-23T11:32:26.931Z,7.10
2022-08-23T11:35:10.261Z,9.40
2022-08-23T11:38:03.833Z,6.90
2022-08-23T11:41:12.779Z,8.10
2022-08-23T11:43:47.803Z,8.50
2022-08-23T11:46:37.386Z,7.40
2022-08-23T11:49:32.184Z,7.70
2022-08-23T11:52:17.335Z,9.00
2022-08-23T11:55:08.612Z,7.50
2022-08-23T11:57:57.923Z,8.00
2022-08-23T12:00:51.347Z,8.60
2022-08-23T12:03:34.113Z,8.90
2022-08-23T12:06:31.878Z,10.40
2022-08-23T12:09:12.411Z,9.30
2022-08-23T12:12:27.727Z,9.20
2022-08-23T12:15:02.412Z,8.10
2022-08-23T12:18:11.648Z,8.20
2022-08-23T12:20:48.448Z,9.40
2022-08-23T12:23:23.147Z,10.70
2022-08-23T12:26:14.038Z,9.00
2022-08-23T12:28:50.963Z,9.70
2022-08-23T12:31:34.248Z,9.40
2022-08-23T12:34:25.774Z,9.00
2022-08-23T12:37:09.578Z,10.00
2022-08-23T12:39:50.414Z,9.10
2022-08-23T12:42:29.382Z,8.60
2022-08-23T12:45:09.919Z,11.40
2022-08-23T12:47:43.514Z,11.10
2022-08-23T12:50:32.846Z,8.80
2022-08-23T12:53:09.917Z,11.40
2022-08-23T12:55:45.279Z,8.50
2022-08-23T13:00:58.320Z,9.40
2022-08-23T13:03:35.973Z,11.50
2022-08-23T13:06:11.843Z,9.20
2022-08-23T13:08:49.255Z,9.30
2022-08-23T13:11:26.248Z,9.50
2022-08-23T13:13:58.699Z,8.70
2022-08-23T13:16:43.865Z,10.10
2022-08-23T13:19:31.841Z,8.50
2022-08-23T13:22:22.266Z,9.00
2022-08-23T13:28:03.059Z,10.30
2022-08-23T13:30:37.354Z,9.40
2022-08-23T13:33:25.579Z,9.00
2022-08-23T13:36:13.247Z,9.50
2022-08-23T13:38:47.066Z,9.20
2022-08-23T13:41:38.414Z,9.50
2022-08-23T13:44:15.623Z,9.10
2022-08-23T13:46:51.314Z,7.20
2022-08-23T13:49:28.718Z,11.10
2022-08-23T13:52:41.609Z,22.80
2022-08-23T13:55:03.255Z,10.70
2022-08-23T13:57:37.336Z,9.10
2022-08-23T14:00:15.335Z,7.70
2022-08-23T14:02:51.020Z,6.40
2022-08-23T14:05:25.151Z,8.10
2022-08-23T14:07:57.478Z,6.80
2022-08-23T14:10:30.176Z,7.20
2022-08-23T14:13:03.098Z,7.60
2022-08-23T14:18:28.280Z,7.70
2022-08-23T14:21:02.003Z,7.90
2022-08-23T14:23:34.224Z,9.30
2022-08-23T14:26:06.827Z,7.90
2022-08-23T14:28:44.290Z,7.50
2022-08-23T14:31:16.790Z,8.20
2022-08-23T14:33:49.555Z,8.30
2022-08-23T14:36:22.037Z,6.10
2022-08-23T14:38:57.445Z,6.70
2022-08-23T14:41:31.856Z,7.30
2022-08-23T14:44:05.144Z,7.30
2022-08-23T14:46:37.356Z,6.60
2022-08-23T14:49:09.626Z,7.10
2022-08-23T14:51:46.318Z,8.80
2022-08-23T14:54:23.031Z,8.60
2022-08-23T14:56:55.727Z,6.90
2022-08-23T14:59:27.979Z,8.00
2022-08-23T15:02:01.001Z,7.30
2022-08-23T15:04:34.301Z,8.00
2022-08-23T15:07:18.275Z,6.80
2022-08-23T15:09:55.907Z,7.60
2022-08-23T15:15:22.345Z,6.50
2022-08-23T15:17:58.008Z,5.50
2022-08-23T15:20:34.443Z,8.80
2022-08-23T15:23:08.015Z,9.70
2022-08-23T15:25:42.300Z,8.80
2022-08-23T15:28:16.865Z,8.40
2022-08-23T15:30:50.604Z,9.20
2022-08-23T15:33:27.004Z,8.10
2022-08-23T15:36:03.650Z,8.80
2022-08-23T15:38:36.797Z,7.70
2022-08-23T15:41:09.596Z,7.60
2022-08-23T15:43:43.119Z,10.60
2022-08-23T15:46:21.642Z,8.80
2022-08-23T15:48:58.940Z,8.00
2022-08-23T15:51:31.380Z,9.80
2022-08-23T15:54:04.096Z,10.10
2022-08-23T15:56:41.353Z,7.70
2022-08-23T15:59:17.626Z,9.50
2022-08-23T16:01:49.920Z,8.40
2022-08-23T16:04:22.127Z,10.60
2022-08-23T16:06:54.294Z,7.80
2022-08-23T16:09:28.162Z,8.20
2022-08-23T16:12:00.662Z,8.60
2022-08-23T16:14:33.152Z,10.90
2022-08-23T16:17:06.100Z,12.40
2022-08-23T16:19:38.425Z,12.60
2022-08-23T16:22:10.650Z,16.30
2022-08-23T16:24:42.990Z,10.70
2022-08-23T16:27:15.242Z,10.40
2022-08-23T16:29:47.389Z,25.80
2022-08-23T16:32:19.593Z,15.60
2022-08-23T16:34:51.944Z,29.90
2022-08-23T16:37:24.195Z,15.10
2022-08-23T16:39:56.487Z,13.10
2022-08-23T16:42:28.676Z,13.70
2022-08-23T16:45:01.029Z,13.90
2022-08-23T16:47:34.947Z,15.00
2022-08-23T16:50:08.267Z,12.80
2022-08-23T16:52:40.496Z,11.70
2022-08-23T16:55:14.586Z,10.90
2022-08-23T16:57:46.804Z,8.00
2022-08-23T17:00:19.893Z,9.70
2022-08-23T17:02:52.114Z,8.60
2022-08-23T17:05:25.022Z,7.00
2022-08-23T17:07:57.308Z,6.50
2022-08-23T17:10:30.840Z,6.90
2022-08-23T17:13:03.670Z,6.60
2022-08-23T17:15:38.051Z,6.20
2022-08-23T17:18:10.735Z,5.60
2022-08-23T17:20:43.829Z,4.30
2022-08-23T17:23:16.147Z,4.70
2022-08-23T17:25:50.555Z,3.90
2022-08-23T17:28:22.928Z,5.30
2022-08-23T17:30:55.485Z,4.40
2022-08-23T17:33:28.654Z,4.60
2022-08-23T17:36:00.824Z,3.20
2022-08-23T17:38:33.160Z,3.80
2022-08-23T17:41:05.319Z,2.60
2022-08-23T17:43:37.576Z,2.80
2022-08-23T17:46:10.054Z,3.40
2022-08-23T17:48:42.420Z,1.70
2022-08-23T17:51:14.577Z,4.40
2022-08-23T17:53:47.556Z,3.10
2022-08-23T17:56:19.762Z,2.20
2022-08-23T17:58:52.979Z,5.40
2022-08-23T18:01:25.366Z,2.70
2022-08-23T18:03:57.931Z,2.70
2022-08-23T18:06:30.125Z,1.90
2022-08-23T18:09:03.506Z,3.00
2022-08-23T18:11:36.579Z,2.50
2022-08-23T18:14:09.467Z,2.70
2022-08-23T18:16:44.099Z,2.30
2022-08-23T18:19:18.516Z,3.30
2022-08-23T18:21:50.864Z,4.20
2022-08-23T18:24:23.204Z,7.90
2022-08-23T18:27:13.080Z,4.30
2022-08-23T18:29:45.644Z,6.20
2022-08-23T18:32:23.811Z,3.60
2022-08-23T18:34:56.153Z,2.10
2022-08-23T18:37:28.439Z,2.30
2022-08-23T18:40:00.996Z,2.00
2022-08-23T18:42:33.259Z,1.20
2022-08-23T18:45:05.907Z,1.80
2022-08-23T18:47:39.080Z,1.50
2022-08-23T18:50:14.548Z,1.70
2022-08-23T18:52:46.782Z,1.70
2022-08-23T18:55:20.341Z,1.90
2022-08-23T18:57:52.484Z,2.70
2022-08-23T19:00:24.672Z,4.00
2022-08-23T19:02:57.447Z,2.90
2022-08-23T19:05:41.682Z,1.80
2022-08-23T19:08:15.879Z,1.70
2022-08-23T19:10:48.769Z,2.60
2022-08-23T19:13:20.990Z,2.80
2022-08-23T19:15:53.529Z,2.30
2022-08-23T19:18:25.782Z,2.90
2022-08-23T19:20:57.968Z,2.70
2022-08-23T19:23:30.217Z,2.00
2022-08-23T19:26:03.575Z,2.60
2022-08-23T19:28:38.627Z,2.20
2022-08-23T19:31:11.654Z,2.30
2022-08-23T19:33:44.347Z,3.10
2022-08-23T19:36:42.769Z,3.10
2022-08-23T19:39:09.864Z,3.90
2022-08-23T19:41:42.379Z,3.30
2022-08-23T19:44:15.131Z,4.80
2022-08-23T19:46:50.067Z,3.20
2022-08-23T19:49:23.048Z,3.10
2022-08-23T19:51:55.441Z,2.30
2022-08-23T19:54:28.399Z,4.30
2022-08-23T19:57:02.091Z,3.50
2022-08-23T19:59:36.679Z,3.60
2022-08-23T20:02:09.900Z,3.70
2022-08-23T20:04:42.271Z,3.40
2022-08-23T20:07:14.397Z,3.90
2022-08-23T20:09:47.205Z,2.80
2022-08-23T20:12:19.443Z,3.30
2022-08-23T20:14:51.629Z,5.50
2022-08-23T20:17:24.145Z,3.70
2022-08-23T20:19:56.786Z,4.90
2022-08-23T20:22:54.732Z,3.80
2022-08-23T20:25:27.687Z,3.20
2022-08-23T20:27:59.991Z,3.50
2022-08-23T20:30:32.188Z,3.90
2022-08-23T20:33:05.079Z,4.50
2022-08-23T20:35:37.270Z,3.70
2022-08-23T20:38:09.491Z,3.50
2022-08-23T20:41:01.679Z,3.30
2022-08-23T20:43:39.203Z,3.90
2022-08-23T20:46:11.835Z,4.40
2022-08-23T20:48:44.141Z,3.10
2022-08-23T20:51:16.375Z,4.10
2022-08-23T20:53:48.608Z,3.70
2022-08-23T20:56:21.651Z,3.10
2022-08-23T20:58:54.339Z,3.80
2022-08-23T21:01:26.603Z,3.60
2022-08-23T21:03:58.795Z,4.20
2022-08-23T21:06:38.741Z,3.70
2022-08-23T21:09:12.401Z,4.00
2022-08-23T21:11:45.390Z,3.70
2022-08-23T21:14:20.744Z,3.90
2022-08-23T21:16:53.225Z,3.80
2022-08-23T21:19:25.700Z,3.80
2022-08-23T21:21:58.613Z,3.60
2022-08-23T21:24:32.402Z,2.80
2022-08-23T21:27:09.585Z,3.80
2022-08-23T21:29:42.297Z,4.10
2022-08-23T21:32:14.479Z,3.40
2022-08-23T21:34:46.993Z,3.40
2022-08-23T21:37:19.215Z,2.10
2022-08-23T21:39:52.708Z,3.20
2022-08-23T21:42:26.228Z,2.60
2022-08-23T21:44:58.415Z,2.20
2022-08-23T21:47:30.528Z,3.10
2022-08-23T21:50:02.692Z,3.10
2022-08-23T21:52:34.900Z,2.50
2022-08-23T21:55:08.767Z,3.40
2022-08-23T21:57:41.404Z,2.00
2022-08-23T22:00:17.462Z,2.10
2022-08-23T22:02:49.634Z,2.70
2022-08-23T22:05:21.931Z,3.90
2022-08-23T22:07:54.259Z,2.60
2022-08-23T22:10:27.704Z,2.80
2022-08-23T22:13:01.675Z,3.40
2022-08-23T22:15:33.981Z,2.60
2022-08-23T22:18:06.918Z,3.00
2022-08-23T22:20:39.203Z,1.50
2022-08-23T22:23:11.693Z,3.70
2022-08-23T22:25:43.885Z,2.80
2022-08-23T22:28:16.064Z,2.30
2022-08-23T22:30:48.366Z,2.90
2022-08-23T22:33:20.620Z,2.70
2022-08-23T22:35:52.793Z,2.70
2022-08-23T22:38:25.749Z,2.30
2022-08-23T22:40:58.411Z,2.60
2022-08-23T22:43:30.798Z,1.50
2022-08-23T22:46:05.015Z,2.00
2022-08-23T22:48:37.388Z,2.40
2022-08-23T22:51:12.784Z,3.70
2022-08-23T22:53:47.645Z,3.30
2022-08-23T22:56:23.103Z,2.20
2022-08-23T22:58:55.491Z,2.60
2022-08-23T23:01:29.657Z,2.30
2022-08-23T23:04:03.657Z,2.00
2022-08-23T23:06:36.279Z,2.30
2022-08-23T23:09:09.845Z,1.50
2022-08-23T23:11:42.742Z,2.30
2022-08-23T23:14:16.529Z,2.40
2022-08-23T23:16:50.231Z,3.20
2022-08-23T23:19:40.780Z,3.20
2022-08-23T23:22:12.984Z,1.80
2022-08-23T23:24:45.125Z,3.10
2022-08-23T23:27:17.294Z,3.20
2022-08-23T23:29:49.534Z,2.70
2022-08-23T23:32:22.021Z,2.90
2022-08-23T23:34:54.342Z,3.10
2022-08-23T23:37:30.468Z,2.90
2022-08-23T23:40:02.875Z,3.90
2022-08-23T23:42:35.119Z,3.00
2022-08-23T23:45:09.049Z,3.40
2022-08-23T23:47:42.633Z,2.00
2022-08-23T23:50:16.907Z,2.90
2022-08-23T23:52:49.167Z,3.40
2022-08-23T23:55:23.135Z,1.90
2022-08-23T23:57:56.899Z,3.70
